»·PEaware :: RNGR723 KNGP-KNGP

RNGR723 :: KNGP-KNGP

FLIGHT INFORMATION

Flight Status: Arrived
Operator: Unknown
More flights by this operator :: More flights under this callsign
Pilot: USN Avenger (31125)
Aircraft: BEECH AIRCRAFT T-6A TEXAN
(TEX2)
More flights by this aircraft type
Origin: KNGP Corpus Christi NAS/Truax
United States
Destination: KNGP Corpus Christi NAS/Truax
United States
More flights between these airports :: More routes between these airports
Route: SOUTH MUSTANG KNWL
File this flight plan on PilotEdge
Remarks:
Altitude:
(Current/Filed)
5,500ft
Speed:
(Current/Filed)
240kts
Departed: 14-Nov-23 01:17 PM
Arrived: 14-Nov-23 02:01 PM
Distance/Time
Traveled:
0nm/0:44
Distance/Time
To Go:
Arrived

Flight Plot

Page will automatically refresh every two minutes.

Flight plan parsing failed; only flown route is shown


Map Options




Map Legend


Flown Route
Filed Route
Departure Airport
Arrival Airport
Navaid (VOR, NDB)
Fix

Horizontal Profiles

Position Reports

Time Latitude Longitude Heading Altitude Ground
Speed
14-Nov-23 13:09 27.689280 -97.282259 0 22ft 0kts
14-Nov-23 13:10 27.689310 -97.282258 3 22ft 2kts
14-Nov-23 13:11 27.691001 -97.284535 314 22ft 8kts
14-Nov-23 13:12 27.691198 -97.286208 265 22ft 0kts
14-Nov-23 13:13 27.691215 -97.286600 62 22ft 0kts
14-Nov-23 13:14 27.688129 -97.281273 154 22ft 20kts
14-Nov-23 13:15 27.687208 -97.281953 223 22ft 15kts
14-Nov-23 13:16 27.694826 -97.291091 316 171ft 126kts
14-Nov-23 13:17 27.737522 -97.296428 48 777ft 235kts
14-Nov-23 13:18 27.721624 -97.234717 130 614ft 217kts
14-Nov-23 13:19 27.680982 -97.185272 133 2077ft 202kts
14-Nov-23 13:20 27.630030 -97.176235 192 4301ft 205kts
14-Nov-23 13:21 27.573000 -97.193328 202 5820ft 243kts
14-Nov-23 13:22 27.507909 -97.223433 202 5858ft 254kts
14-Nov-23 13:23 27.440541 -97.249847 199 5502ft 261kts
14-Nov-23 13:24 27.380241 -97.257826 122 7626ft 220kts
14-Nov-23 13:25 27.338324 -97.255994 335 8071ft 245kts
14-Nov-23 13:26 27.397437 -97.264293 333 6357ft 185kts
14-Nov-23 13:27 27.442562 -97.296805 311 3949ft 225kts
14-Nov-23 13:28 27.460231 -97.353838 281 1857ft 159kts
14-Nov-23 13:29 27.503482 -97.345547 18 1225ft 186kts
14-Nov-23 13:30 27.554543 -97.327169 13 1151ft 197kts
14-Nov-23 13:31 27.608988 -97.318360 0 1100ft 197kts
14-Nov-23 13:32 27.648481 -97.332408 231 858ft 141kts
14-Nov-23 13:33 27.617189 -97.323624 98 597ft 112kts
14-Nov-23 13:34 27.639003 -97.315432 0 164ft 104kts
14-Nov-23 13:35 27.640827 -97.330066 180 952ft 122kts
14-Nov-23 13:36 27.615960 -97.316837 52 458ft 107kts
14-Nov-23 13:37 27.641046 -97.315212 356 174ft 122kts
14-Nov-23 13:38 27.646904 -97.331799 178 775ft 134kts
14-Nov-23 13:39 27.615371 -97.322533 91 669ft 125kts
14-Nov-23 13:40 27.639833 -97.315264 355 162ft 113kts
14-Nov-23 13:41 27.644533 -97.331035 177 918ft 135kts
14-Nov-23 13:42 27.614046 -97.321754 77 690ft 122kts
14-Nov-23 13:43 27.639607 -97.315236 359 160ft 114kts
14-Nov-23 13:44 27.651017 -97.327896 181 934ft 137kts
14-Nov-23 13:45 27.616095 -97.324977 122 587ft 129kts
14-Nov-23 13:46 27.636725 -97.314917 354 49ft 97kts
14-Nov-23 13:47 27.649916 -97.329471 178 832ft 132kts
14-Nov-23 13:48 27.610106 -97.323143 167 661ft 177kts
14-Nov-23 13:49 27.577569 -97.278000 110 878ft 204kts
14-Nov-23 13:50 27.563562 -97.213934 63 1140ft 227kts
14-Nov-23 13:51 27.617386 -97.175462 22 1120ft 239kts
14-Nov-23 13:52 27.676217 -97.142437 25 1081ft 236kts
14-Nov-23 13:53 27.734231 -97.123960 316 1124ft 226kts
14-Nov-23 13:54 27.756610 -97.184596 241 1103ft 206kts
14-Nov-23 13:55 27.702776 -97.206424 198 1160ft 211kts
14-Nov-23 13:56 27.658013 -97.240733 274 1140ft 188kts
14-Nov-23 13:57 27.692438 -97.284904 315 1094ft 193kts
14-Nov-23 13:58 27.706391 -97.273814 132 685ft 129kts
14-Nov-23 13:59 27.681267 -97.264302 252 341ft 103kts
14-Nov-23 14:00 27.689458 -97.285059 320 22ft 12kts
14-Nov-23 14:01 27.691187 -97.286222 86 22ft 0kts

Navigation Log

Ident Type
Flight plan parsing failed, navigation log unavailable